FRS131 EDDW-EDXW
Flight info
| Callsign | FRS131 |
|---|---|
| Flight time | 0h 42m |
| Altitude | 3500 |
| Route | DCT EDXH DCT |
| Aircraft | C208/L-SDFGR/C |
Departure
| Time | 2026-04-26 11:12 |
|---|---|
| Airport | Bremen Airport (EDDW) |
Arrival
| Time | 2026-04-26 11:54 |
|---|---|
| Airport | Westerland Sylt Airport (EDXW) |
| Time | Latitude | Longitude | Altitude | Speed | Heading |
|---|---|---|---|---|---|
| 2026-04-26 11:00 | 53.04996 | 8.78473 | 20 ft | 0 kts | 47° |
| 2026-04-26 11:07 | 53.05010 | 8.78499 | 20 ft | 10 kts | 48° |
| 2026-04-26 11:07 | 53.05019 | 8.78611 | 18 ft | 12 kts | 133° |
| 2026-04-26 11:07 | 53.04947 | 8.78654 | 18 ft | 10 kts | 177° |
| 2026-04-26 11:07 | 53.04883 | 8.78668 | 19 ft | 9 kts | 153° |
| 2026-04-26 11:08 | 53.04853 | 8.78771 | 19 ft | 14 kts | 88° |
| 2026-04-26 11:08 | 53.04855 | 8.78944 | 18 ft | 17 kts | 89° |
| 2026-04-26 11:08 | 53.04861 | 8.79212 | 22 ft | 20 kts | 95° |
| 2026-04-26 11:08 | 53.04802 | 8.79294 | 22 ft | 11 kts | 178° |
| 2026-04-26 11:09 | 53.04793 | 8.79294 | 21 ft | 0 kts | 178° |
| 2026-04-26 11:10 | 53.04719 | 8.79267 | 20 ft | 16 kts | 224° |
| 2026-04-26 11:11 | 53.04697 | 8.79177 | 21 ft | 0 kts | 265° |
| 2026-04-26 11:11 | 53.04690 | 8.78961 | 23 ft | 51 kts | 268° |
| 2026-04-26 11:11 | 53.04674 | 8.78148 | 76 ft | 79 kts | 269° |
| 2026-04-26 11:11 | 53.04648 | 8.77192 | 203 ft | 83 kts | 266° |
| 2026-04-26 11:12 | 53.04637 | 8.76237 | 370 ft | 85 kts | 276° |
| 2026-04-26 11:12 | 53.05090 | 8.75660 | 524 ft | 94 kts | 4° |
| 2026-04-26 11:12 | 53.05704 | 8.76020 | 712 ft | 95 kts | 11° |
| 2026-04-26 11:12 | 53.06394 | 8.76411 | 908 ft | 113 kts | 16° |
| 2026-04-26 11:13 | 53.07150 | 8.76472 | 1113 ft | 110 kts | 332° |
| 2026-04-26 11:13 | 53.07813 | 8.75830 | 1326 ft | 109 kts | 326° |
| 2026-04-26 11:13 | 53.08477 | 8.75201 | 1488 ft | 110 kts | 326° |
| 2026-04-26 11:13 | 53.09137 | 8.74565 | 1639 ft | 111 kts | 325° |
| 2026-04-26 11:14 | 53.09862 | 8.73934 | 1745 ft | 128 kts | 343° |
| 2026-04-26 11:14 | 53.10784 | 8.74040 | 1899 ft | 136 kts | 2° |
| 2026-04-26 11:14 | 53.11686 | 8.73805 | 2046 ft | 130 kts | 334° |
| 2026-04-26 11:14 | 53.12552 | 8.73239 | 2106 ft | 140 kts | 333° |
| 2026-04-26 11:15 | 53.13455 | 8.72595 | 2234 ft | 141 kts | 332° |
| 2026-04-26 11:15 | 53.14701 | 8.71658 | 2450 ft | 138 kts | 330° |
| 2026-04-26 11:15 | 53.16430 | 8.70333 | 2757 ft | 136 kts | 330° |
| 2026-04-26 11:15 | 53.18125 | 8.69025 | 3063 ft | 133 kts | 332° |
| 2026-04-26 11:16 | 53.19797 | 8.67736 | 3376 ft | 130 kts | 331° |
| 2026-04-26 11:16 | 53.21407 | 8.66497 | 3676 ft | 126 kts | 330° |
| 2026-04-26 11:16 | 53.22995 | 8.65267 | 3979 ft | 126 kts | 331° |
| 2026-04-26 11:16 | 53.24574 | 8.64046 | 4279 ft | 124 kts | 330° |
| 2026-04-26 11:17 | 53.26161 | 8.62904 | 4581 ft | 125 kts | 333° |
| 2026-04-26 11:17 | 53.27766 | 8.61832 | 4895 ft | 124 kts | 333° |
| 2026-04-26 11:17 | 53.29366 | 8.60756 | 5199 ft | 123 kts | 333° |
| 2026-04-26 11:17 | 53.30954 | 8.59691 | 5484 ft | 123 kts | 333° |
| 2026-04-26 11:18 | 53.32644 | 8.58548 | 5501 ft | 136 kts | 333° |
| 2026-04-26 11:18 | 53.34440 | 8.57343 | 5496 ft | 142 kts | 333° |
| 2026-04-26 11:18 | 53.34522 | 8.57288 | 5497 ft | 142 kts | 333° |
| 2026-04-26 11:18 | 53.36282 | 8.56100 | 5495 ft | 144 kts | 333° |
| 2026-04-26 11:19 | 53.38140 | 8.54847 | 5496 ft | 144 kts | 333° |
| 2026-04-26 11:19 | 53.39988 | 8.53595 | 5493 ft | 143 kts | 333° |
| 2026-04-26 11:19 | 53.41846 | 8.52347 | 5493 ft | 144 kts | 333° |
| 2026-04-26 11:19 | 53.43667 | 8.51022 | 5493 ft | 142 kts | 331° |
| 2026-04-26 11:20 | 53.45481 | 8.49680 | 5494 ft | 143 kts | 331° |
| 2026-04-26 11:20 | 53.46683 | 8.48791 | 5491 ft | 142 kts | 332° |
| 2026-04-26 11:20 | 53.49109 | 8.46995 | 5495 ft | 143 kts | 332° |
| 2026-04-26 11:20 | 53.50909 | 8.45662 | 5497 ft | 143 kts | 332° |
| 2026-04-26 11:21 | 53.52755 | 8.44290 | 5494 ft | 143 kts | 332° |
| 2026-04-26 11:21 | 53.54575 | 8.42938 | 5495 ft | 143 kts | 332° |
| 2026-04-26 11:21 | 53.56372 | 8.41602 | 5492 ft | 142 kts | 332° |
| 2026-04-26 11:21 | 53.58151 | 8.40193 | 5492 ft | 141 kts | 330° |
| 2026-04-26 11:22 | 53.59927 | 8.38787 | 5492 ft | 141 kts | 330° |
| 2026-04-26 11:22 | 53.61705 | 8.37375 | 5489 ft | 141 kts | 330° |
| 2026-04-26 11:22 | 53.63478 | 8.35968 | 5490 ft | 140 kts | 330° |
| 2026-04-26 11:22 | 53.65244 | 8.34565 | 5490 ft | 140 kts | 330° |
| 2026-04-26 11:23 | 53.67006 | 8.33163 | 5491 ft | 140 kts | 330° |
| 2026-04-26 11:23 | 53.68051 | 8.32330 | 5491 ft | 140 kts | 330° |
| 2026-04-26 11:23 | 53.69065 | 8.31522 | 5493 ft | 140 kts | 330° |
| 2026-04-26 11:23 | 53.70829 | 8.30117 | 5490 ft | 140 kts | 330° |
| 2026-04-26 11:24 | 53.72596 | 8.28707 | 5494 ft | 141 kts | 330° |
| 2026-04-26 11:24 | 53.74371 | 8.27290 | 5495 ft | 141 kts | 330° |
| 2026-04-26 11:24 | 53.76150 | 8.25868 | 5497 ft | 142 kts | 330° |
| 2026-04-26 11:24 | 53.77931 | 8.24442 | 5499 ft | 141 kts | 330° |
| 2026-04-26 11:25 | 53.79709 | 8.23019 | 5501 ft | 141 kts | 330° |
| 2026-04-26 11:25 | 53.81483 | 8.21597 | 5499 ft | 141 kts | 330° |
| 2026-04-26 11:25 | 53.83255 | 8.20174 | 5498 ft | 141 kts | 330° |
| 2026-04-26 11:25 | 53.85032 | 8.18746 | 5500 ft | 142 kts | 330° |
| 2026-04-26 11:26 | 53.86813 | 8.17315 | 5506 ft | 142 kts | 330° |
| 2026-04-26 11:26 | 53.88594 | 8.15883 | 5506 ft | 142 kts | 330° |
| 2026-04-26 11:26 | 53.90372 | 8.14451 | 5506 ft | 141 kts | 330° |
| 2026-04-26 11:26 | 53.92144 | 8.13021 | 5508 ft | 142 kts | 330° |
| 2026-04-26 11:27 | 53.93923 | 8.11586 | 5509 ft | 142 kts | 330° |
| 2026-04-26 11:27 | 53.95748 | 8.10109 | 5278 ft | 152 kts | 330° |
| 2026-04-26 11:27 | 53.97529 | 8.08670 | 4913 ft | 159 kts | 330° |
| 2026-04-26 11:27 | 53.98333 | 8.08023 | 4749 ft | 160 kts | 330° |
| 2026-04-26 11:28 | 54.00346 | 8.06394 | 4335 ft | 156 kts | 330° |
| 2026-04-26 11:28 | 54.02191 | 8.04900 | 3890 ft | 136 kts | 330° |
| 2026-04-26 11:28 | 54.03836 | 8.03563 | 3456 ft | 127 kts | 330° |
| 2026-04-26 11:28 | 54.05398 | 8.02296 | 3111 ft | 119 kts | 330° |
| 2026-04-26 11:29 | 54.06857 | 8.01110 | 2885 ft | 114 kts | 330° |
| 2026-04-26 11:29 | 54.08274 | 7.99956 | 2659 ft | 112 kts | 330° |
| 2026-04-26 11:29 | 54.09304 | 7.99116 | 2500 ft | 110 kts | 330° |
| 2026-04-26 11:29 | 54.10009 | 7.98541 | 2301 ft | 114 kts | 330° |
| 2026-04-26 11:30 | 54.10745 | 7.97978 | 2094 ft | 117 kts | 334° |
| 2026-04-26 11:30 | 54.11252 | 7.97643 | 1981 ft | 118 kts | 334° |
| 2026-04-26 11:30 | 54.12262 | 7.96970 | 1804 ft | 116 kts | 334° |
| 2026-04-26 11:30 | 54.13013 | 7.96472 | 1678 ft | 115 kts | 334° |
| 2026-04-26 11:31 | 54.13704 | 7.96021 | 1605 ft | 104 kts | 334° |
| 2026-04-26 11:31 | 54.14376 | 7.95576 | 1468 ft | 101 kts | 334° |
| 2026-04-26 11:31 | 54.15019 | 7.95147 | 1346 ft | 94 kts | 334° |
| 2026-04-26 11:31 | 54.15569 | 7.94801 | 1221 ft | 80 kts | 334° |
| 2026-04-26 11:32 | 54.16058 | 7.94433 | 1068 ft | 75 kts | 329° |
| 2026-04-26 11:32 | 54.16492 | 7.94028 | 997 ft | 65 kts | 327° |
| 2026-04-26 11:32 | 54.16889 | 7.93589 | 789 ft | 69 kts | 321° |
| 2026-04-26 11:32 | 54.17257 | 7.93049 | 571 ft | 72 kts | 319° |
| 2026-04-26 11:33 | 54.17650 | 7.92517 | 362 ft | 73 kts | 321° |
| 2026-04-26 11:33 | 54.18056 | 7.91984 | 120 ft | 73 kts | 324° |
| 2026-04-26 11:33 | 54.18442 | 7.91529 | 11 ft | 59 kts | 324° |
| 2026-04-26 11:33 | 54.18597 | 7.91340 | 10 ft | 9 kts | 324° |
| 2026-04-26 11:34 | 54.18649 | 7.91275 | 12 ft | 6 kts | 38° |
| 2026-04-26 11:34 | 54.18619 | 7.91323 | 10 ft | 9 kts | 156° |
| 2026-04-26 11:34 | 54.18606 | 7.91406 | 8 ft | 5 kts | 16° |
| 2026-04-26 11:34 | 54.18638 | 7.91420 | 9 ft | 5 kts | 27° |
| 2026-04-26 11:35 | 54.18648 | 7.91435 | 9 ft | 0 kts | 55° |
| 2026-04-26 11:39 | 54.18661 | 7.91469 | 9 ft | 11 kts | 64° |
| 2026-04-26 11:39 | 54.18635 | 7.91485 | 7 ft | 7 kts | 232° |
| 2026-04-26 11:39 | 54.18605 | 7.91416 | 8 ft | 7 kts | 234° |
| 2026-04-26 11:39 | 54.18601 | 7.91352 | 9 ft | 9 kts | 307° |
| 2026-04-26 11:40 | 54.18642 | 7.91272 | 12 ft | 7 kts | 356° |
| 2026-04-26 11:40 | 54.18628 | 7.91310 | 11 ft | 6 kts | 140° |
| 2026-04-26 11:40 | 54.18627 | 7.91312 | 11 ft | 0 kts | 138° |
| 2026-04-26 11:41 | 54.18424 | 7.91559 | 10 ft | 75 kts | 144° |
| 2026-04-26 11:42 | 54.19773 | 7.98807 | 1067 ft | 148 kts | 359° |
| 2026-04-26 11:43 | 54.20781 | 7.99155 | 1278 ft | 146 kts | 12° |
| 2026-04-26 11:43 | 54.21992 | 7.99724 | 1608 ft | 140 kts | 12° |
| 2026-04-26 11:43 | 54.23853 | 8.00626 | 2130 ft | 139 kts | 11° |
| 2026-04-26 11:43 | 54.25694 | 8.01529 | 2653 ft | 137 kts | 12° |
| 2026-04-26 11:44 | 54.27520 | 8.02426 | 3162 ft | 136 kts | 12° |
| 2026-04-26 11:44 | 54.29332 | 8.03318 | 3675 ft | 135 kts | 11° |
| 2026-04-26 11:44 | 54.31135 | 8.04206 | 4184 ft | 134 kts | 11° |
| 2026-04-26 11:44 | 54.32918 | 8.05084 | 4703 ft | 133 kts | 10° |
| 2026-04-26 11:45 | 54.34688 | 8.05959 | 5223 ft | 132 kts | 10° |
| 2026-04-26 11:45 | 54.36435 | 8.06821 | 5728 ft | 130 kts | 9° |
| 2026-04-26 11:45 | 54.38162 | 8.07674 | 6242 ft | 128 kts | 9° |
| 2026-04-26 11:45 | 54.39861 | 8.08516 | 6760 ft | 126 kts | 9° |
| 2026-04-26 11:46 | 54.41669 | 8.09403 | 6873 ft | 146 kts | 10° |
| 2026-04-26 11:46 | 54.43706 | 8.10415 | 6871 ft | 157 kts | 11° |
| 2026-04-26 11:46 | 54.45834 | 8.11474 | 6867 ft | 161 kts | 11° |
| 2026-04-26 11:46 | 54.47992 | 8.12547 | 6871 ft | 162 kts | 11° |
| 2026-04-26 11:47 | 54.50156 | 8.13622 | 6872 ft | 162 kts | 11° |
| 2026-04-26 11:47 | 54.50747 | 8.13916 | 6869 ft | 162 kts | 11° |
| 2026-04-26 11:47 | 54.52454 | 8.14776 | 6853 ft | 131 kts | 10° |
| 2026-04-26 11:47 | 54.53944 | 8.15518 | 6735 ft | 107 kts | 8° |
| 2026-04-26 11:48 | 54.55443 | 8.16254 | 6220 ft | 115 kts | 9° |
| 2026-04-26 11:48 | 54.57008 | 8.17036 | 5709 ft | 118 kts | 10° |
| 2026-04-26 11:48 | 54.58603 | 8.17833 | 5211 ft | 120 kts | 9° |
| 2026-04-26 11:48 | 54.60223 | 8.18642 | 4683 ft | 122 kts | 11° |
| 2026-04-26 11:49 | 54.61858 | 8.19461 | 4163 ft | 123 kts | 11° |
| 2026-04-26 11:49 | 54.63472 | 8.20270 | 3779 ft | 117 kts | 10° |
| 2026-04-26 11:49 | 54.65014 | 8.21043 | 3455 ft | 114 kts | 11° |
| 2026-04-26 11:49 | 54.66530 | 8.21803 | 3132 ft | 113 kts | 11° |
| 2026-04-26 11:50 | 54.67998 | 8.22538 | 2824 ft | 110 kts | 10° |
| 2026-04-26 11:50 | 54.69495 | 8.23290 | 2495 ft | 111 kts | 11° |
| 2026-04-26 11:50 | 54.70969 | 8.24031 | 2191 ft | 110 kts | 11° |
| 2026-04-26 11:50 | 54.72432 | 8.24767 | 1868 ft | 109 kts | 11° |
| 2026-04-26 11:51 | 54.73618 | 8.25365 | 1619 ft | 113 kts | 11° |
| 2026-04-26 11:51 | 54.75163 | 8.26140 | 1312 ft | 117 kts | 11° |
| 2026-04-26 11:51 | 54.76766 | 8.26682 | 1003 ft | 117 kts | 4° |
| 2026-04-26 11:51 | 54.78261 | 8.27100 | 990 ft | 104 kts | 3° |
| 2026-04-26 11:52 | 54.79679 | 8.27485 | 996 ft | 105 kts | 3° |
| 2026-04-26 11:52 | 54.81138 | 8.27686 | 988 ft | 104 kts | 354° |
| 2026-04-26 11:52 | 54.82581 | 8.27592 | 1001 ft | 105 kts | 353° |
| 2026-04-26 11:52 | 54.84053 | 8.27606 | 998 ft | 106 kts | 355° |
| 2026-04-26 11:53 | 54.85516 | 8.27654 | 1002 ft | 105 kts | 355° |
| 2026-04-26 11:53 | 54.86956 | 8.27716 | 995 ft | 103 kts | 356° |
| 2026-04-26 11:53 | 54.88127 | 8.27950 | 988 ft | 105 kts | 1° |
| 2026-04-26 11:54 | 54.90159 | 8.30654 | 686 ft | 93 kts | 54° |
| 2026-04-26 11:54 | 54.90805 | 8.32498 | 227 ft | 86 kts | 60° |
| 2026-04-26 11:54 | 54.91317 | 8.33997 | 40 ft | 21 kts | 59° |
| 2026-04-26 11:54 | 54.91285 | 8.33966 | 40 ft | 8 kts | 244° |
| 2026-04-26 11:55 | 54.91244 | 8.33820 | 38 ft | 21 kts | 242° |
| 2026-04-26 11:55 | 54.91164 | 8.33591 | 36 ft | 21 kts | 239° |
| 2026-04-26 11:55 | 54.91095 | 8.33380 | 37 ft | 19 kts | 241° |
| 2026-04-26 11:55 | 54.91035 | 8.33195 | 37 ft | 17 kts | 240° |
| 2026-04-26 11:56 | 54.91013 | 8.33019 | 36 ft | 14 kts | 290° |
| 2026-04-26 11:56 | 54.91069 | 8.32891 | 37 ft | 13 kts | 311° |
| 2026-04-26 11:56 | 54.91126 | 8.32778 | 37 ft | 12 kts | 311° |
| 2026-04-26 11:56 | 54.91177 | 8.32672 | 37 ft | 11 kts | 307° |
| 2026-04-26 11:57 | 54.91235 | 8.32594 | 38 ft | 10 kts | 338° |
| 2026-04-26 11:57 | 54.91255 | 8.32523 | 38 ft | 8 kts | 223° |
| 2026-04-26 11:57 | 54.91253 | 8.32519 | 38 ft | 0 kts | 223° |